sensor_id;sensor_type;location;lat;lon;timestamp;temperature;humidity
64634;DHT22;51043;52.406;9.690;2022-08-19T00:01:52;19.30;99.90
64634;DHT22;51043;52.406;9.690;2022-08-19T00:04:25;19.20;99.90
64634;DHT22;51043;52.406;9.690;2022-08-19T00:06:53;19.30;99.90
64634;DHT22;51043;52.406;9.690;2022-08-19T00:09:24;19.40;99.90
64634;DHT22;51043;52.406;9.690;2022-08-19T00:11:53;19.30;99.90
64634;DHT22;51043;52.406;9.690;2022-08-19T00:14:25;19.40;99.90
64634;DHT22;51043;52.406;9.690;2022-08-19T00:16:53;19.40;99.90
64634;DHT22;51043;52.406;9.690;2022-08-19T00:19:24;19.40;99.90
64634;DHT22;51043;52.406;9.690;2022-08-19T00:21:52;19.30;99.90
64634;DHT22;51043;52.406;9.690;2022-08-19T00:24:19;19.30;99.90
64634;DHT22;51043;52.406;9.690;2022-08-19T00:26:50;19.30;99.90
64634;DHT22;51043;52.406;9.690;2022-08-19T00:29:22;19.40;99.90
64634;DHT22;51043;52.406;9.690;2022-08-19T00:31:51;19.40;99.90
64634;DHT22;51043;52.406;9.690;2022-08-19T00:34:23;19.30;99.90
64634;DHT22;51043;52.406;9.690;2022-08-19T00:36:56;19.40;99.90
64634;DHT22;51043;52.406;9.690;2022-08-19T00:39:23;19.30;99.90
64634;DHT22;51043;52.406;9.690;2022-08-19T00:41:53;19.20;99.90
64634;DHT22;51043;52.406;9.690;2022-08-19T00:44:26;19.10;99.90
64634;DHT22;51043;52.406;9.690;2022-08-19T00:46:56;19.00;99.90
64634;DHT22;51043;52.406;9.690;2022-08-19T00:52:04;19.00;99.90
64634;DHT22;51043;52.406;9.690;2022-08-19T00:54:32;18.90;99.90
64634;DHT22;51043;52.406;9.690;2022-08-19T00:57:01;18.90;99.90
64634;DHT22;51043;52.406;9.690;2022-08-19T00:59:31;18.80;99.90
64634;DHT22;51043;52.406;9.690;2022-08-19T01:02:01;18.80;99.90
64634;DHT22;51043;52.406;9.690;2022-08-19T01:04:28;18.80;99.90
64634;DHT22;51043;52.406;9.690;2022-08-19T01:06:59;18.70;99.90
64634;DHT22;51043;52.406;9.690;2022-08-19T01:09:29;18.70;99.90
64634;DHT22;51043;52.406;9.690;2022-08-19T01:11:59;18.60;99.90
64634;DHT22;51043;52.406;9.690;2022-08-19T01:14:26;18.60;99.90
64634;DHT22;51043;52.406;9.690;2022-08-19T01:16:55;18.50;99.90
64634;DHT22;51043;52.406;9.690;2022-08-19T01:19:46;18.50;99.90
64634;DHT22;51043;52.406;9.690;2022-08-19T01:22:30;18.50;99.90
64634;DHT22;51043;52.406;9.690;2022-08-19T01:24:59;18.60;99.90
64634;DHT22;51043;52.406;9.690;2022-08-19T01:27:38;18.60;99.90
64634;DHT22;51043;52.406;9.690;2022-08-19T01:30:07;18.50;99.90
64634;DHT22;51043;52.406;9.690;2022-08-19T01:32:34;18.50;99.90
64634;DHT22;51043;52.406;9.690;2022-08-19T01:35:02;18.50;99.90
64634;DHT22;51043;52.406;9.690;2022-08-19T01:37:49;18.50;99.90
64634;DHT22;51043;52.406;9.690;2022-08-19T01:40:20;18.50;99.90
64634;DHT22;51043;52.406;9.690;2022-08-19T01:42:48;18.50;99.90
64634;DHT22;51043;52.406;9.690;2022-08-19T01:45:17;18.50;99.90
64634;DHT22;51043;52.406;9.690;2022-08-19T01:47:44;18.40;99.90
64634;DHT22;51043;52.406;9.690;2022-08-19T01:50:12;18.30;99.90
64634;DHT22;51043;52.406;9.690;2022-08-19T01:52:41;18.40;99.90
64634;DHT22;51043;52.406;9.690;2022-08-19T01:55:16;18.40;99.90
64634;DHT22;51043;52.406;9.690;2022-08-19T01:57:50;18.40;99.90
64634;DHT22;51043;52.406;9.690;2022-08-19T02:00:21;18.50;99.90
64634;DHT22;51043;52.406;9.690;2022-08-19T02:02:49;18.50;99.90
64634;DHT22;51043;52.406;9.690;2022-08-19T02:05:16;18.50;99.90
64634;DHT22;51043;52.406;9.690;2022-08-19T02:07:45;18.50;99.90
64634;DHT22;51043;52.406;9.690;2022-08-19T02:10:19;18.50;99.90
64634;DHT22;51043;52.406;9.690;2022-08-19T02:12:47;18.40;99.90
64634;DHT22;51043;52.406;9.690;2022-08-19T02:15:17;18.50;99.90
64634;DHT22;51043;52.406;9.690;2022-08-19T02:17:46;18.40;99.90
64634;DHT22;51043;52.406;9.690;2022-08-19T02:20:15;18.30;99.90
64634;DHT22;51043;52.406;9.690;2022-08-19T02:22:42;18.40;99.90
64634;DHT22;51043;52.406;9.690;2022-08-19T02:25:12;18.40;99.90
64634;DHT22;51043;52.406;9.690;2022-08-19T02:27:42;18.40;99.90
64634;DHT22;51043;52.406;9.690;2022-08-19T02:30:13;18.50;99.90
64634;DHT22;51043;52.406;9.690;2022-08-19T02:32:43;18.40;99.90
64634;DHT22;51043;52.406;9.690;2022-08-19T02:35:12;18.40;99.90
64634;DHT22;51043;52.406;9.690;2022-08-19T02:37:40;18.50;99.90
64634;DHT22;51043;52.406;9.690;2022-08-19T02:40:27;18.40;99.90
64634;DHT22;51043;52.406;9.690;2022-08-19T02:42:55;18.50;99.90
64634;DHT22;51043;52.406;9.690;2022-08-19T02:45:22;18.50;99.90
64634;DHT22;51043;52.406;9.690;2022-08-19T02:47:50;18.60;99.90
64634;DHT22;51043;52.406;9.690;2022-08-19T02:50:17;18.50;99.90
64634;DHT22;51043;52.406;9.690;2022-08-19T02:52:46;18.50;99.90
64634;DHT22;51043;52.406;9.690;2022-08-19T02:55:13;18.50;99.90
64634;DHT22;51043;52.406;9.690;2022-08-19T02:57:40;18.50;99.90
64634;DHT22;51043;52.406;9.690;2022-08-19T03:00:09;18.50;99.90
64634;DHT22;51043;52.406;9.690;2022-08-19T03:02:39;18.50;99.90
64634;DHT22;51043;52.406;9.690;2022-08-19T03:05:09;18.50;99.90
64634;DHT22;51043;52.406;9.690;2022-08-19T03:07:37;18.40;99.90
64634;DHT22;51043;52.406;9.690;2022-08-19T03:10:04;18.40;99.90
64634;DHT22;51043;52.406;9.690;2022-08-19T03:12:36;18.40;99.90
64634;DHT22;51043;52.406;9.690;2022-08-19T03:15:05;18.30;99.90
64634;DHT22;51043;52.406;9.690;2022-08-19T03:17:33;18.20;99.90
64634;DHT22;51043;52.406;9.690;2022-08-19T03:20:01;18.30;99.90
64634;DHT22;51043;52.406;9.690;2022-08-19T03:22:29;18.20;99.90
64634;DHT22;51043;52.406;9.690;2022-08-19T03:24:57;18.20;99.90
64634;DHT22;51043;52.406;9.690;2022-08-19T03:27:26;18.10;99.90
64634;DHT22;51043;52.406;9.690;2022-08-19T03:29:55;18.10;99.90
64634;DHT22;51043;52.406;9.690;2022-08-19T03:32:23;17.90;99.90
64634;DHT22;51043;52.406;9.690;2022-08-19T03:34:50;18.00;99.90
64634;DHT22;51043;52.406;9.690;2022-08-19T03:37:18;17.90;99.90
64634;DHT22;51043;52.406;9.690;2022-08-19T03:39:45;17.90;99.90
64634;DHT22;51043;52.406;9.690;2022-08-19T03:42:12;17.90;99.90
64634;DHT22;51043;52.406;9.690;2022-08-19T03:44:39;17.90;99.90
64634;DHT22;51043;52.406;9.690;2022-08-19T03:47:08;17.80;99.90
64634;DHT22;51043;52.406;9.690;2022-08-19T03:49:36;17.70;99.90
64634;DHT22;51043;52.406;9.690;2022-08-19T03:52:04;17.60;99.90
64634;DHT22;51043;52.406;9.690;2022-08-19T03:54:34;17.50;99.90
64634;DHT22;51043;52.406;9.690;2022-08-19T03:57:04;17.50;99.90
64634;DHT22;51043;52.406;9.690;2022-08-19T03:59:33;17.30;99.90
64634;DHT22;51043;52.406;9.690;2022-08-19T04:02:05;17.30;99.90
64634;DHT22;51043;52.406;9.690;2022-08-19T04:04:37;17.30;99.90
64634;DHT22;51043;52.406;9.690;2022-08-19T04:07:05;17.30;99.90
64634;DHT22;51043;52.406;9.690;2022-08-19T04:09:34;17.40;99.90
64634;DHT22;51043;52.406;9.690;2022-08-19T04:12:05;17.40;99.90
64634;DHT22;51043;52.406;9.690;2022-08-19T04:14:33;17.50;99.90
64634;DHT22;51043;52.406;9.690;2022-08-19T04:17:02;17.50;99.90
64634;DHT22;51043;52.406;9.690;2022-08-19T04:19:33;17.50;99.90
64634;DHT22;51043;52.406;9.690;2022-08-19T04:22:00;17.60;99.90
64634;DHT22;51043;52.406;9.690;2022-08-19T04:24:28;17.60;99.90
64634;DHT22;51043;52.406;9.690;2022-08-19T04:26:55;17.60;99.90
64634;DHT22;51043;52.406;9.690;2022-08-19T04:29:24;17.60;99.90
64634;DHT22;51043;52.406;9.690;2022-08-19T04:31:55;17.70;99.90
64634;DHT22;51043;52.406;9.690;2022-08-19T04:34:24;17.60;99.90
64634;DHT22;51043;52.406;9.690;2022-08-19T04:36:53;17.50;99.90
64634;DHT22;51043;52.406;9.690;2022-08-19T04:39:23;17.50;99.90
64634;DHT22;51043;52.406;9.690;2022-08-19T04:42:11;17.60;99.90
64634;DHT22;51043;52.406;9.690;2022-08-19T04:44:58;17.60;99.90
64634;DHT22;51043;52.406;9.690;2022-08-19T04:47:25;17.50;99.90
64634;DHT22;51043;52.406;9.690;2022-08-19T04:49:52;17.50;99.90
64634;DHT22;51043;52.406;9.690;2022-08-19T04:52:20;17.50;99.90
64634;DHT22;51043;52.406;9.690;2022-08-19T04:54:46;17.40;99.90
64634;DHT22;51043;52.406;9.690;2022-08-19T04:57:14;17.50;99.90
64634;DHT22;51043;52.406;9.690;2022-08-19T04:59:41;17.50;99.90
64634;DHT22;51043;52.406;9.690;2022-08-19T05:02:09;17.50;99.90
64634;DHT22;51043;52.406;9.690;2022-08-19T05:04:36;17.50;99.90
64634;DHT22;51043;52.406;9.690;2022-08-19T05:07:07;17.50;99.90
64634;DHT22;51043;52.406;9.690;2022-08-19T05:09:34;17.50;99.90
64634;DHT22;51043;52.406;9.690;2022-08-19T05:12:02;17.60;99.90
64634;DHT22;51043;52.406;9.690;2022-08-19T05:14:29;17.70;99.90
64634;DHT22;51043;52.406;9.690;2022-08-19T05:16:56;17.70;99.90
64634;DHT22;51043;52.406;9.690;2022-08-19T05:19:32;17.70;99.90
64634;DHT22;51043;52.406;9.690;2022-08-19T05:22:17;17.70;99.90
64634;DHT22;51043;52.406;9.690;2022-08-19T05:25:05;17.70;99.90
64634;DHT22;51043;52.406;9.690;2022-08-19T05:27:41;17.80;99.90
64634;DHT22;51043;52.406;9.690;2022-08-19T05:30:10;17.90;99.90
64634;DHT22;51043;52.406;9.690;2022-08-19T05:32:38;18.00;99.90
64634;DHT22;51043;52.406;9.690;2022-08-19T05:35:08;18.10;99.90
64634;DHT22;51043;52.406;9.690;2022-08-19T05:37:36;18.20;99.90
64634;DHT22;51043;52.406;9.690;2022-08-19T05:40:04;18.20;99.90
64634;DHT22;51043;52.406;9.690;2022-08-19T05:42:31;18.30;99.90
64634;DHT22;51043;52.406;9.690;2022-08-19T05:44:58;18.30;99.90
64634;DHT22;51043;52.406;9.690;2022-08-19T05:47:25;18.30;99.90
64634;DHT22;51043;52.406;9.690;2022-08-19T05:49:52;18.20;99.90
64634;DHT22;51043;52.406;9.690;2022-08-19T05:52:19;18.30;99.90
64634;DHT22;51043;52.406;9.690;2022-08-19T05:54:46;18.40;99.90
64634;DHT22;51043;52.406;9.690;2022-08-19T05:57:14;18.50;99.90
64634;DHT22;51043;52.406;9.690;2022-08-19T05:59:42;18.50;99.90
64634;DHT22;51043;52.406;9.690;2022-08-19T06:02:10;18.50;99.90
64634;DHT22;51043;52.406;9.690;2022-08-19T06:04:37;18.50;99.90
64634;DHT22;51043;52.406;9.690;2022-08-19T06:07:08;18.50;99.90
64634;DHT22;51043;52.406;9.690;2022-08-19T06:09:36;18.70;99.90
64634;DHT22;51043;52.406;9.690;2022-08-19T06:12:04;18.50;99.90
64634;DHT22;51043;52.406;9.690;2022-08-19T06:14:33;18.50;99.90
64634;DHT22;51043;52.406;9.690;2022-08-19T06:17:02;18.50;99.90
64634;DHT22;51043;52.406;9.690;2022-08-19T06:19:32;18.50;99.90
64634;DHT22;51043;52.406;9.690;2022-08-19T06:22:00;18.40;99.90
64634;DHT22;51043;52.406;9.690;2022-08-19T06:24:28;18.40;99.90
64634;DHT22;51043;52.406;9.690;2022-08-19T06:26:57;18.40;99.90
64634;DHT22;51043;52.406;9.690;2022-08-19T06:29:25;18.40;99.90
64634;DHT22;51043;52.406;9.690;2022-08-19T06:31:54;18.40;99.90
64634;DHT22;51043;52.406;9.690;2022-08-19T06:34:23;18.40;99.90
64634;DHT22;51043;52.406;9.690;2022-08-19T06:36:52;18.50;99.90
64634;DHT22;51043;52.406;9.690;2022-08-19T06:39:22;18.60;99.90
64634;DHT22;51043;52.406;9.690;2022-08-19T06:41:52;18.70;99.90
64634;DHT22;51043;52.406;9.690;2022-08-19T06:44:23;18.80;99.90
64634;DHT22;51043;52.406;9.690;2022-08-19T06:46:52;18.90;99.90
64634;DHT22;51043;52.406;9.690;2022-08-19T06:49:21;19.00;99.90
64634;DHT22;51043;52.406;9.690;2022-08-19T06:51:49;19.10;99.90
64634;DHT22;51043;52.406;9.690;2022-08-19T06:54:18;19.10;99.90
64634;DHT22;51043;52.406;9.690;2022-08-19T06:56:49;19.30;99.90
64634;DHT22;51043;52.406;9.690;2022-08-19T06:59:18;19.20;99.90
64634;DHT22;51043;52.406;9.690;2022-08-19T07:01:50;19.20;99.90
64634;DHT22;51043;52.406;9.690;2022-08-19T07:04:22;19.30;99.90
64634;DHT22;51043;52.406;9.690;2022-08-19T07:07:04;19.30;99.90
64634;DHT22;51043;52.406;9.690;2022-08-19T07:09:36;19.30;99.90
64634;DHT22;51043;52.406;9.690;2022-08-19T07:12:06;19.40;99.90
64634;DHT22;51043;52.406;9.690;2022-08-19T07:14:34;19.50;99.90
64634;DHT22;51043;52.406;9.690;2022-08-19T07:17:07;19.60;99.90
64634;DHT22;51043;52.406;9.690;2022-08-19T07:19:35;19.70;99.90
64634;DHT22;51043;52.406;9.690;2022-08-19T07:22:04;19.90;99.90
64634;DHT22;51043;52.406;9.690;2022-08-19T07:24:32;20.00;99.90
64634;DHT22;51043;52.406;9.690;2022-08-19T07:27:02;20.20;99.90
64634;DHT22;51043;52.406;9.690;2022-08-19T07:29:31;20.20;99.90
64634;DHT22;51043;52.406;9.690;2022-08-19T07:32:00;20.40;99.90
64634;DHT22;51043;52.406;9.690;2022-08-19T07:34:29;20.50;99.90
64634;DHT22;51043;52.406;9.690;2022-08-19T07:36:57;20.40;99.90
64634;DHT22;51043;52.406;9.690;2022-08-19T07:39:27;20.50;99.90
64634;DHT22;51043;52.406;9.690;2022-08-19T07:42:02;20.50;99.90
64634;DHT22;51043;52.406;9.690;2022-08-19T07:44:30;20.60;99.90
64634;DHT22;51043;52.406;9.690;2022-08-19T07:47:00;20.60;99.90
64634;DHT22;51043;52.406;9.690;2022-08-19T07:49:28;20.70;99.90
64634;DHT22;51043;52.406;9.690;2022-08-19T07:54:24;20.70;99.90
64634;DHT22;51043;52.406;9.690;2022-08-19T07:56:51;20.80;99.90
64634;DHT22;51043;52.406;9.690;2022-08-19T07:59:20;21.00;99.90
64634;DHT22;51043;52.406;9.690;2022-08-19T08:01:48;20.70;99.90
64634;DHT22;51043;52.406;9.690;2022-08-19T08:04:18;20.90;99.90
64634;DHT22;51043;52.406;9.690;2022-08-19T08:07:05;20.80;99.90
64634;DHT22;51043;52.406;9.690;2022-08-19T08:09:52;21.00;99.90
64634;DHT22;51043;52.406;9.690;2022-08-19T08:12:24;21.30;99.90
64634;DHT22;51043;52.406;9.690;2022-08-19T08:15:02;21.50;99.90
64634;DHT22;51043;52.406;9.690;2022-08-19T08:17:30;21.50;99.90
64634;DHT22;51043;52.406;9.690;2022-08-19T08:20:00;21.40;99.90
64634;DHT22;51043;52.406;9.690;2022-08-19T08:22:26;21.70;99.90
64634;DHT22;51043;52.406;9.690;2022-08-19T08:25:17;22.00;99.90
64634;DHT22;51043;52.406;9.690;2022-08-19T08:27:49;22.10;99.90
64634;DHT22;51043;52.406;9.690;2022-08-19T08:30:19;22.40;99.90
64634;DHT22;51043;52.406;9.690;2022-08-19T08:32:50;22.50;99.90
64634;DHT22;51043;52.406;9.690;2022-08-19T08:35:20;22.50;99.90
64634;DHT22;51043;52.406;9.690;2022-08-19T08:37:54;22.50;99.90
64634;DHT22;51043;52.406;9.690;2022-08-19T08:43:11;22.60;99.90
64634;DHT22;51043;52.406;9.690;2022-08-19T08:45:47;22.80;99.90
64634;DHT22;51043;52.406;9.690;2022-08-19T08:48:39;22.80;99.90
64634;DHT22;51043;52.406;9.690;2022-08-19T08:51:11;23.10;99.90
64634;DHT22;51043;52.406;9.690;2022-08-19T08:53:41;23.80;99.90
64634;DHT22;51043;52.406;9.690;2022-08-19T08:56:09;24.70;99.90
64634;DHT22;51043;52.406;9.690;2022-08-19T08:59:01;25.90;99.90
64634;DHT22;51043;52.406;9.690;2022-08-19T09:01:30;27.40;99.90
64634;DHT22;51043;52.406;9.690;2022-08-19T09:03:57;27.70;99.90
64634;DHT22;51043;52.406;9.690;2022-08-19T09:09:36;28.40;97.60
64634;DHT22;51043;52.406;9.690;2022-08-19T09:15:05;27.10;96.60
64634;DHT22;51043;52.406;9.690;2022-08-19T09:17:30;26.40;97.70
64634;DHT22;51043;52.406;9.690;2022-08-19T09:20:00;26.10;98.40
64634;DHT22;51043;52.406;9.690;2022-08-19T09:22:32;25.90;98.70
64634;DHT22;51043;52.406;9.690;2022-08-19T09:25:00;26.10;99.40
64634;DHT22;51043;52.406;9.690;2022-08-19T09:27:29;26.40;98.20
64634;DHT22;51043;52.406;9.690;2022-08-19T09:29:56;26.30;98.40
64634;DHT22;51043;52.406;9.690;2022-08-19T09:32:23;26.60;95.70
64634;DHT22;51043;52.406;9.690;2022-08-19T09:34:53;27.10;94.80
64634;DHT22;51043;52.406;9.690;2022-08-19T09:37:21;28.20;92.60
64634;DHT22;51043;52.406;9.690;2022-08-19T09:39:49;28.80;90.40
64634;DHT22;51043;52.406;9.690;2022-08-19T09:42:18;30.20;84.80
64634;DHT22;51043;52.406;9.690;2022-08-19T09:44:53;31.70;78.10
64634;DHT22;51043;52.406;9.690;2022-08-19T09:47:24;33.10;70.10
64634;DHT22;51043;52.406;9.690;2022-08-19T09:49:54;33.60;62.00
64634;DHT22;51043;52.406;9.690;2022-08-19T09:52:24;33.00;62.60
64634;DHT22;51043;52.406;9.690;2022-08-19T09:54:54;32.10;61.50
64634;DHT22;51043;52.406;9.690;2022-08-19T09:57:21;31.00;64.40
64634;DHT22;51043;52.406;9.690;2022-08-19T09:59:53;29.40;67.50
64634;DHT22;51043;52.406;9.690;2022-08-19T10:02:22;28.90;69.90
64634;DHT22;51043;52.406;9.690;2022-08-19T10:04:59;29.30;68.10
64634;DHT22;51043;52.406;9.690;2022-08-19T10:07:44;29.20;69.50
64634;DHT22;51043;52.406;9.690;2022-08-19T10:10:11;29.30;68.10
64634;DHT22;51043;52.406;9.690;2022-08-19T10:12:39;29.70;64.90
64634;DHT22;51043;52.406;9.690;2022-08-19T10:15:06;29.50;65.10
64634;DHT22;51043;52.406;9.690;2022-08-19T10:17:33;29.50;63.10
64634;DHT22;51043;52.406;9.690;2022-08-19T10:20:02;29.40;64.20
64634;DHT22;51043;52.406;9.690;2022-08-19T10:22:31;29.60;65.00
64634;DHT22;51043;52.406;9.690;2022-08-19T10:24:58;30.30;64.00
64634;DHT22;51043;52.406;9.690;2022-08-19T10:27:25;31.50;57.50
64634;DHT22;51043;52.406;9.690;2022-08-19T10:29:55;32.00;56.40
64634;DHT22;51043;52.406;9.690;2022-08-19T10:32:22;32.40;57.60
64634;DHT22;51043;52.406;9.690;2022-08-19T10:34:54;33.40;51.80
64634;DHT22;51043;52.406;9.690;2022-08-19T10:37:23;33.70;50.30
64634;DHT22;51043;52.406;9.690;2022-08-19T10:39:53;34.50;51.10
64634;DHT22;51043;52.406;9.690;2022-08-19T10:42:23;34.70;47.70
64634;DHT22;51043;52.406;9.690;2022-08-19T10:44:53;33.90;48.60
64634;DHT22;51043;52.406;9.690;2022-08-19T10:47:22;34.00;48.70
64634;DHT22;51043;52.406;9.690;2022-08-19T10:49:49;34.30;47.60
64634;DHT22;51043;52.406;9.690;2022-08-19T10:52:35;33.90;49.20
64634;DHT22;51043;52.406;9.690;2022-08-19T10:55:04;34.20;45.50
64634;DHT22;51043;52.406;9.690;2022-08-19T10:57:51;33.70;46.80
64634;DHT22;51043;52.406;9.690;2022-08-19T11:00:27;33.60;46.90
64634;DHT22;51043;52.406;9.690;2022-08-19T11:02:55;33.40;47.70
64634;DHT22;51043;52.406;9.690;2022-08-19T11:05:22;34.30;45.70
64634;DHT22;51043;52.406;9.690;2022-08-19T11:07:49;35.40;44.90
64634;DHT22;51043;52.406;9.690;2022-08-19T11:10:19;35.80;43.00
64634;DHT22;51043;52.406;9.690;2022-08-19T11:12:47;35.40;41.70
64634;DHT22;51043;52.406;9.690;2022-08-19T11:15:15;35.00;42.10
64634;DHT22;51043;52.406;9.690;2022-08-19T11:17:42;34.60;43.30
64634;DHT22;51043;52.406;9.690;2022-08-19T11:20:14;35.00;43.10
64634;DHT22;51043;52.406;9.690;2022-08-19T11:22:41;35.70;41.60
64634;DHT22;51043;52.406;9.690;2022-08-19T11:25:10;36.00;41.40
64634;DHT22;51043;52.406;9.690;2022-08-19T11:27:42;36.00;40.80
64634;DHT22;51043;52.406;9.690;2022-08-19T11:30:12;36.40;41.10
64634;DHT22;51043;52.406;9.690;2022-08-19T11:32:40;36.20;39.90
64634;DHT22;51043;52.406;9.690;2022-08-19T11:35:12;36.30;39.20
64634;DHT22;51043;52.406;9.690;2022-08-19T11:37:41;35.40;40.50
64634;DHT22;51043;52.406;9.690;2022-08-19T11:40:11;35.10;40.80
64634;DHT22;51043;52.406;9.690;2022-08-19T11:42:38;34.60;40.70
64634;DHT22;51043;52.406;9.690;2022-08-19T11:45:25;34.60;40.10
64634;DHT22;51043;52.406;9.690;2022-08-19T11:47:53;34.60;41.60
64634;DHT22;51043;52.406;9.690;2022-08-19T11:50:21;34.60;40.30
64634;DHT22;51043;52.406;9.690;2022-08-19T11:52:54;34.30;41.10
64634;DHT22;51043;52.406;9.690;2022-08-19T11:55:22;34.80;40.90
64634;DHT22;51043;52.406;9.690;2022-08-19T11:57:50;34.30;40.40
64634;DHT22;51043;52.406;9.690;2022-08-19T12:00:17;33.30;43.60
64634;DHT22;51043;52.406;9.690;2022-08-19T12:02:46;33.00;45.60
64634;DHT22;51043;52.406;9.690;2022-08-19T12:05:19;33.50;43.60
64634;DHT22;51043;52.406;9.690;2022-08-19T12:07:46;33.40;43.00
64634;DHT22;51043;52.406;9.690;2022-08-19T12:10:13;33.60;44.70
64634;DHT22;51043;52.406;9.690;2022-08-19T12:12:41;33.80;45.60
64634;DHT22;51043;52.406;9.690;2022-08-19T12:15:10;34.20;42.30
64634;DHT22;51043;52.406;9.690;2022-08-19T12:17:38;34.60;43.70
64634;DHT22;51043;52.406;9.690;2022-08-19T12:20:06;34.30;41.90
64634;DHT22;51043;52.406;9.690;2022-08-19T12:22:35;34.20;41.50
64634;DHT22;51043;52.406;9.690;2022-08-19T12:25:04;33.40;43.30
64634;DHT22;51043;52.406;9.690;2022-08-19T12:27:31;33.20;43.20
64634;DHT22;51043;52.406;9.690;2022-08-19T12:29:59;33.60;42.00
64634;DHT22;51043;52.406;9.690;2022-08-19T12:32:28;33.90;42.40
64634;DHT22;51043;52.406;9.690;2022-08-19T12:34:56;34.30;41.60
64634;DHT22;51043;52.406;9.690;2022-08-19T12:37:24;33.70;42.70
64634;DHT22;51043;52.406;9.690;2022-08-19T12:39:51;33.40;42.70
64634;DHT22;51043;52.406;9.690;2022-08-19T12:42:25;33.40;43.20
64634;DHT22;51043;52.406;9.690;2022-08-19T12:44:53;33.80;41.80
64634;DHT22;51043;52.406;9.690;2022-08-19T12:47:22;34.10;39.50
64634;DHT22;51043;52.406;9.690;2022-08-19T12:49:53;34.70;39.90
64634;DHT22;51043;52.406;9.690;2022-08-19T12:52:25;35.10;39.10
64634;DHT22;51043;52.406;9.690;2022-08-19T12:54:55;35.10;39.10
64634;DHT22;51043;52.406;9.690;2022-08-19T12:57:27;35.10;38.70
64634;DHT22;51043;52.406;9.690;2022-08-19T12:59:54;34.80;39.30
64634;DHT22;51043;52.406;9.690;2022-08-19T13:02:24;34.90;39.40
64634;DHT22;51043;52.406;9.690;2022-08-19T13:04:51;35.70;38.00
64634;DHT22;51043;52.406;9.690;2022-08-19T13:07:19;35.80;36.60
64634;DHT22;51043;52.406;9.690;2022-08-19T13:09:46;36.00;37.30
64634;DHT22;51043;52.406;9.690;2022-08-19T13:12:13;35.80;36.90
64634;DHT22;51043;52.406;9.690;2022-08-19T13:14:40;35.40;38.00
64634;DHT22;51043;52.406;9.690;2022-08-19T13:17:08;35.30;36.90
64634;DHT22;51043;52.406;9.690;2022-08-19T13:19:38;35.00;38.00
64634;DHT22;51043;52.406;9.690;2022-08-19T13:22:06;34.90;37.70
64634;DHT22;51043;52.406;9.690;2022-08-19T13:24:33;34.90;37.30
64634;DHT22;51043;52.406;9.690;2022-08-19T13:27:02;34.90;37.70
64634;DHT22;51043;52.406;9.690;2022-08-19T13:29:29;35.50;37.50
64634;DHT22;51043;52.406;9.690;2022-08-19T13:32:14;36.10;35.60
64634;DHT22;51043;52.406;9.690;2022-08-19T13:35:00;35.70;35.50
64634;DHT22;51043;52.406;9.690;2022-08-19T13:37:26;35.60;35.80
64634;DHT22;51043;52.406;9.690;2022-08-19T13:40:15;36.00;36.60
64634;DHT22;51043;52.406;9.690;2022-08-19T13:42:46;36.40;36.90
64634;DHT22;51043;52.406;9.690;2022-08-19T13:45:16;37.20;35.50
64634;DHT22;51043;52.406;9.690;2022-08-19T13:47:46;37.20;34.50
64634;DHT22;51043;52.406;9.690;2022-08-19T13:50:17;37.10;34.80
64634;DHT22;51043;52.406;9.690;2022-08-19T13:52:44;36.70;35.30
64634;DHT22;51043;52.406;9.690;2022-08-19T13:55:12;36.40;35.90
64634;DHT22;51043;52.406;9.690;2022-08-19T13:57:39;36.30;35.60
64634;DHT22;51043;52.406;9.690;2022-08-19T14:00:11;36.80;34.30
64634;DHT22;51043;52.406;9.690;2022-08-19T14:02:39;37.00;35.00
64634;DHT22;51043;52.406;9.690;2022-08-19T14:05:07;37.20;33.40
64634;DHT22;51043;52.406;9.690;2022-08-19T14:07:38;36.00;34.70
64634;DHT22;51043;52.406;9.690;2022-08-19T14:10:07;35.30;36.00
64634;DHT22;51043;52.406;9.690;2022-08-19T14:12:34;35.50;35.30
64634;DHT22;51043;52.406;9.690;2022-08-19T14:15:03;35.70;35.50
64634;DHT22;51043;52.406;9.690;2022-08-19T14:17:31;35.90;36.10
64634;DHT22;51043;52.406;9.690;2022-08-19T14:19:59;36.70;35.10
64634;DHT22;51043;52.406;9.690;2022-08-19T14:22:35;36.70;34.70
64634;DHT22;51043;52.406;9.690;2022-08-19T14:25:04;36.40;34.90
64634;DHT22;51043;52.406;9.690;2022-08-19T14:27:34;35.70;34.80
64634;DHT22;51043;52.406;9.690;2022-08-19T14:30:02;35.40;35.00
64634;DHT22;51043;52.406;9.690;2022-08-19T14:32:29;35.40;35.20
64634;DHT22;51043;52.406;9.690;2022-08-19T14:34:56;35.10;35.40
64634;DHT22;51043;52.406;9.690;2022-08-19T14:37:23;34.60;36.00
64634;DHT22;51043;52.406;9.690;2022-08-19T14:39:50;33.40;38.10
64634;DHT22;51043;52.406;9.690;2022-08-19T14:42:18;31.80;41.00
64634;DHT22;51043;52.406;9.690;2022-08-19T14:44:45;30.80;44.50
64634;DHT22;51043;52.406;9.690;2022-08-19T14:47:12;30.30;45.00
64634;DHT22;51043;52.406;9.690;2022-08-19T14:49:39;29.70;46.90
64634;DHT22;51043;52.406;9.690;2022-08-19T14:52:06;29.30;45.30
64634;DHT22;51043;52.406;9.690;2022-08-19T14:54:34;29.00;46.80
64634;DHT22;51043;52.406;9.690;2022-08-19T14:57:00;28.80;48.50
64634;DHT22;51043;52.406;9.690;2022-08-19T14:59:27;28.60;47.10
64634;DHT22;51043;52.406;9.690;2022-08-19T15:01:55;28.30;48.30
64634;DHT22;51043;52.406;9.690;2022-08-19T15:04:22;28.10;48.50
64634;DHT22;51043;52.406;9.690;2022-08-19T15:06:49;27.90;49.60
64634;DHT22;51043;52.406;9.690;2022-08-19T15:09:17;27.90;50.20
64634;DHT22;51043;52.406;9.690;2022-08-19T15:11:44;27.90;50.00
64634;DHT22;51043;52.406;9.690;2022-08-19T15:14:11;27.80;51.30
64634;DHT22;51043;52.406;9.690;2022-08-19T15:16:38;27.80;52.60
64634;DHT22;51043;52.406;9.690;2022-08-19T15:19:08;27.80;51.70
64634;DHT22;51043;52.406;9.690;2022-08-19T15:21:38;27.90;49.10
64634;DHT22;51043;52.406;9.690;2022-08-19T15:24:05;27.80;51.00
64634;DHT22;51043;52.406;9.690;2022-08-19T15:26:32;27.90;50.30
64634;DHT22;51043;52.406;9.690;2022-08-19T15:29:00;27.70;50.40
64634;DHT22;51043;52.406;9.690;2022-08-19T15:31:28;27.60;50.80
64634;DHT22;51043;52.406;9.690;2022-08-19T15:33:56;27.30;51.90
64634;DHT22;51043;52.406;9.690;2022-08-19T15:36:27;27.20;51.30
64634;DHT22;51043;52.406;9.690;2022-08-19T15:38:55;27.00;52.30
64634;DHT22;51043;52.406;9.690;2022-08-19T15:41:26;27.00;52.30
64634;DHT22;51043;52.406;9.690;2022-08-19T15:43:59;26.90;53.10
64634;DHT22;51043;52.406;9.690;2022-08-19T15:46:30;26.90;53.40
64634;DHT22;51043;52.406;9.690;2022-08-19T15:48:58;26.90;52.70
64634;DHT22;51043;52.406;9.690;2022-08-19T15:51:26;26.80;53.10
64634;DHT22;51043;52.406;9.690;2022-08-19T15:53:54;26.80;53.50
64634;DHT22;51043;52.406;9.690;2022-08-19T15:56:21;26.80;53.30
64634;DHT22;51043;52.406;9.690;2022-08-19T15:58:51;26.80;53.90
64634;DHT22;51043;52.406;9.690;2022-08-19T16:01:36;26.90;52.00